sensor_id;sensor_type;location;lat;lon;timestamp;temperature;humidity
68439;SHT31;55421;51.600;5.718;2023-02-11T00:00:38;7.01;82.30
68439;SHT31;55421;51.600;5.718;2023-02-11T00:03:23;7.02;82.30
68439;SHT31;55421;51.600;5.718;2023-02-11T00:06:00;7.02;82.27
68439;SHT31;55421;51.600;5.718;2023-02-11T00:08:30;7.03;82.22
68439;SHT31;55421;51.600;5.718;2023-02-11T00:10:57;7.03;82.20
68439;SHT31;55421;51.600;5.718;2023-02-11T00:13:24;7.03;82.20
68439;SHT31;55421;51.600;5.718;2023-02-11T00:15:51;7.03;82.20
68439;SHT31;55421;51.600;5.718;2023-02-11T00:18:18;7.03;82.20
68439;SHT31;55421;51.600;5.718;2023-02-11T00:20:45;7.05;82.16
68439;SHT31;55421;51.600;5.718;2023-02-11T00:23:11;7.07;82.10
68439;SHT31;55421;51.600;5.718;2023-02-11T00:25:39;7.11;82.08
68439;SHT31;55421;51.600;5.718;2023-02-11T00:28:08;7.12;82.00
68439;SHT31;55421;51.600;5.718;2023-02-11T00:30:36;7.11;82.00
68439;SHT31;55421;51.600;5.718;2023-02-11T00:33:03;7.12;81.99
68439;SHT31;55421;51.600;5.718;2023-02-11T00:35:29;7.11;81.98
68439;SHT31;55421;51.600;5.718;2023-02-11T00:37:56;7.10;81.94
68439;SHT31;55421;51.600;5.718;2023-02-11T00:40:23;7.10;81.90
68439;SHT31;55421;51.600;5.718;2023-02-11T00:42:49;7.11;81.87
68439;SHT31;55421;51.600;5.718;2023-02-11T00:45:16;7.12;81.81
68439;SHT31;55421;51.600;5.718;2023-02-11T00:47:42;7.13;81.80
68439;SHT31;55421;51.600;5.718;2023-02-11T00:50:09;7.12;81.80
68439;SHT31;55421;51.600;5.718;2023-02-11T00:52:35;7.11;81.80
68439;SHT31;55421;51.600;5.718;2023-02-11T00:55:02;7.09;81.80
68439;SHT31;55421;51.600;5.718;2023-02-11T00:57:29;7.05;81.80
68439;SHT31;55421;51.600;5.718;2023-02-11T00:59:55;7.04;81.81
68439;SHT31;55421;51.600;5.718;2023-02-11T01:02:22;7.05;81.81
68439;SHT31;55421;51.600;5.718;2023-02-11T01:04:50;7.06;81.80
68439;SHT31;55421;51.600;5.718;2023-02-11T01:07:16;7.07;81.80
68439;SHT31;55421;51.600;5.718;2023-02-11T01:09:43;7.06;81.80
68439;SHT31;55421;51.600;5.718;2023-02-11T01:12:09;7.04;81.80
68439;SHT31;55421;51.600;5.718;2023-02-11T01:14:36;7.03;81.80
68439;SHT31;55421;51.600;5.718;2023-02-11T01:17:03;7.03;81.80
68439;SHT31;55421;51.600;5.718;2023-02-11T01:19:31;7.03;81.80
68439;SHT31;55421;51.600;5.718;2023-02-11T01:21:57;7.04;81.77
68439;SHT31;55421;51.600;5.718;2023-02-11T01:24:24;7.05;81.72
68439;SHT31;55421;51.600;5.718;2023-02-11T01:26:50;7.04;81.71
68439;SHT31;55421;51.600;5.718;2023-02-11T01:29:17;7.03;81.73
68439;SHT31;55421;51.600;5.718;2023-02-11T01:31:43;7.01;81.72
68439;SHT31;55421;51.600;5.718;2023-02-11T01:34:09;7.01;81.73
68439;SHT31;55421;51.600;5.718;2023-02-11T01:36:36;7.02;81.78
68439;SHT31;55421;51.600;5.718;2023-02-11T01:39:02;7.02;81.70
68439;SHT31;55421;51.600;5.718;2023-02-11T01:41:29;7.04;81.70
68439;SHT31;55421;51.600;5.718;2023-02-11T01:46:58;7.00;81.70
68439;SHT31;55421;51.600;5.718;2023-02-11T01:49:27;6.98;81.76
68439;SHT31;55421;51.600;5.718;2023-02-11T01:52:00;6.96;81.74
68439;SHT31;55421;51.600;5.718;2023-02-11T01:54:34;6.97;81.79
68439;SHT31;55421;51.600;5.718;2023-02-11T01:57:27;6.99;81.75
68439;SHT31;55421;51.600;5.718;2023-02-11T02:03:04;6.98;81.73
68439;SHT31;55421;51.600;5.718;2023-02-11T02:05:46;6.95;81.71
68439;SHT31;55421;51.600;5.718;2023-02-11T02:08:42;6.91;81.80
68439;SHT31;55421;51.600;5.718;2023-02-11T02:11:15;6.89;81.86
68439;SHT31;55421;51.600;5.718;2023-02-11T02:13:42;6.87;81.90
68439;SHT31;55421;51.600;5.718;2023-02-11T02:16:13;6.88;81.90
68439;SHT31;55421;51.600;5.718;2023-02-11T02:31:09;6.86;82.00
68439;SHT31;55421;51.600;5.718;2023-02-11T02:34:07;6.85;82.01
68439;SHT31;55421;51.600;5.718;2023-02-11T02:36:48;6.87;82.06
68439;SHT31;55421;51.600;5.718;2023-02-11T02:39:30;6.88;82.08
68439;SHT31;55421;51.600;5.718;2023-02-11T02:42:01;6.89;82.03
68439;SHT31;55421;51.600;5.718;2023-02-11T02:44:32;6.88;82.05
68439;SHT31;55421;51.600;5.718;2023-02-11T02:46:59;6.88;82.10
68439;SHT31;55421;51.600;5.718;2023-02-11T02:49:25;6.86;82.09
68439;SHT31;55421;51.600;5.718;2023-02-11T02:52:14;6.85;82.10
68439;SHT31;55421;51.600;5.718;2023-02-11T02:58:04;6.86;82.11
68439;SHT31;55421;51.600;5.718;2023-02-11T03:01:07;6.86;82.17
68439;SHT31;55421;51.600;5.718;2023-02-11T03:04:04;6.84;82.20
68439;SHT31;55421;51.600;5.718;2023-02-11T03:07:08;6.81;82.23
68439;SHT31;55421;51.600;5.718;2023-02-11T03:12:45;6.82;82.30
68439;SHT31;55421;51.600;5.718;2023-02-11T03:15:14;6.83;82.30
68439;SHT31;55421;51.600;5.718;2023-02-11T03:17:45;6.84;82.30
68439;SHT31;55421;51.600;5.718;2023-02-11T03:20:16;6.83;82.30
68439;SHT31;55421;51.600;5.718;2023-02-11T03:23:49;6.81;82.31
68439;SHT31;55421;51.600;5.718;2023-02-11T03:26:04;6.79;82.42
68439;SHT31;55421;51.600;5.718;2023-02-11T03:28:43;6.78;82.42
68439;SHT31;55421;51.600;5.718;2023-02-11T03:31:21;6.78;82.49
68439;SHT31;55421;51.600;5.718;2023-02-11T03:37:13;6.80;82.48
68439;SHT31;55421;51.600;5.718;2023-02-11T03:39:55;6.78;82.50
68439;SHT31;55421;51.600;5.718;2023-02-11T03:42:33;6.75;82.50
68439;SHT31;55421;51.600;5.718;2023-02-11T03:45:10;6.71;82.56
68439;SHT31;55421;51.600;5.718;2023-02-11T03:47:45;6.70;82.60
68439;SHT31;55421;51.600;5.718;2023-02-11T03:50:16;6.71;82.64
68439;SHT31;55421;51.600;5.718;2023-02-11T03:52:46;6.71;82.63
68439;SHT31;55421;51.600;5.718;2023-02-11T03:55:16;6.74;82.67
68439;SHT31;55421;51.600;5.718;2023-02-11T03:57:46;6.74;82.64
68439;SHT31;55421;51.600;5.718;2023-02-11T04:00:13;6.73;82.63
68439;SHT31;55421;51.600;5.718;2023-02-11T04:02:40;6.72;82.71
68439;SHT31;55421;51.600;5.718;2023-02-11T04:05:09;6.71;82.71
68439;SHT31;55421;51.600;5.718;2023-02-11T04:07:40;6.74;82.72
68439;SHT31;55421;51.600;5.718;2023-02-11T04:10:07;6.75;82.70
68439;SHT31;55421;51.600;5.718;2023-02-11T04:12:34;6.77;82.72
68439;SHT31;55421;51.600;5.718;2023-02-11T04:15:00;6.78;82.72
68439;SHT31;55421;51.600;5.718;2023-02-11T04:17:27;6.76;82.80
68439;SHT31;55421;51.600;5.718;2023-02-11T04:19:53;6.75;82.80
68439;SHT31;55421;51.600;5.718;2023-02-11T04:22:20;6.76;82.81
68439;SHT31;55421;51.600;5.718;2023-02-11T04:24:46;6.77;82.80
68439;SHT31;55421;51.600;5.718;2023-02-11T04:27:12;6.79;82.83
68439;SHT31;55421;51.600;5.718;2023-02-11T04:29:39;6.80;82.88
68439;SHT31;55421;51.600;5.718;2023-02-11T04:32:05;6.78;82.90
68439;SHT31;55421;51.600;5.718;2023-02-11T04:34:32;6.76;82.91
68439;SHT31;55421;51.600;5.718;2023-02-11T04:36:58;6.73;83.00
68439;SHT31;55421;51.600;5.718;2023-02-11T04:39:25;6.73;83.01
68439;SHT31;55421;51.600;5.718;2023-02-11T04:41:51;6.73;83.10
68439;SHT31;55421;51.600;5.718;2023-02-11T04:44:18;6.75;83.12
68439;SHT31;55421;51.600;5.718;2023-02-11T04:46:44;6.78;83.11
68439;SHT31;55421;51.600;5.718;2023-02-11T04:49:11;6.80;83.20
68439;SHT31;55421;51.600;5.718;2023-02-11T04:51:40;6.78;83.19
68439;SHT31;55421;51.600;5.718;2023-02-11T04:54:07;6.77;83.21
68439;SHT31;55421;51.600;5.718;2023-02-11T04:56:34;6.76;83.27
68439;SHT31;55421;51.600;5.718;2023-02-11T04:59:01;6.74;83.29
68439;SHT31;55421;51.600;5.718;2023-02-11T05:01:28;6.74;83.30
68439;SHT31;55421;51.600;5.718;2023-02-11T05:03:55;6.76;83.30
68439;SHT31;55421;51.600;5.718;2023-02-11T05:06:22;6.78;83.32
68439;SHT31;55421;51.600;5.718;2023-02-11T05:08:49;6.80;83.30
68439;SHT31;55421;51.600;5.718;2023-02-11T05:11:17;6.83;83.35
68439;SHT31;55421;51.600;5.718;2023-02-11T05:13:48;6.83;83.32
68439;SHT31;55421;51.600;5.718;2023-02-11T05:16:14;6.82;83.39
68439;SHT31;55421;51.600;5.718;2023-02-11T05:18:42;6.81;83.40
68439;SHT31;55421;51.600;5.718;2023-02-11T05:21:11;6.81;83.44
68439;SHT31;55421;51.600;5.718;2023-02-11T05:23:41;6.82;83.49
68439;SHT31;55421;51.600;5.718;2023-02-11T05:26:09;6.84;83.50
68439;SHT31;55421;51.600;5.718;2023-02-11T05:28:37;6.87;83.50
68439;SHT31;55421;51.600;5.718;2023-02-11T05:31:04;6.89;83.50
68439;SHT31;55421;51.600;5.718;2023-02-11T05:33:31;6.89;83.53
68439;SHT31;55421;51.600;5.718;2023-02-11T05:36:02;6.90;83.58
68439;SHT31;55421;51.600;5.718;2023-02-11T05:38:35;6.88;83.60
68439;SHT31;55421;51.600;5.718;2023-02-11T05:41:03;6.88;83.61
68439;SHT31;55421;51.600;5.718;2023-02-11T05:43:31;6.90;83.68
68439;SHT31;55421;51.600;5.718;2023-02-11T05:46:00;6.94;83.70
68439;SHT31;55421;51.600;5.718;2023-02-11T05:48:27;6.94;83.65
68439;SHT31;55421;51.600;5.718;2023-02-11T05:50:54;6.95;83.68
68439;SHT31;55421;51.600;5.718;2023-02-11T05:53:21;6.95;83.70
68439;SHT31;55421;51.600;5.718;2023-02-11T05:55:47;6.93;83.70
68439;SHT31;55421;51.600;5.718;2023-02-11T05:58:14;6.93;83.72
68439;SHT31;55421;51.600;5.718;2023-02-11T06:00:41;6.94;83.72
68439;SHT31;55421;51.600;5.718;2023-02-11T06:03:07;6.96;83.74
68439;SHT31;55421;51.600;5.718;2023-02-11T06:05:34;6.98;83.75
68439;SHT31;55421;51.600;5.718;2023-02-11T06:08:00;7.00;83.79
68439;SHT31;55421;51.600;5.718;2023-02-11T06:10:27;7.01;83.80
68439;SHT31;55421;51.600;5.718;2023-02-11T06:12:53;6.99;83.78
68439;SHT31;55421;51.600;5.718;2023-02-11T06:15:19;6.98;83.80
68439;SHT31;55421;51.600;5.718;2023-02-11T06:17:46;6.96;83.82
68439;SHT31;55421;51.600;5.718;2023-02-11T06:20:13;6.95;83.90
68439;SHT31;55421;51.600;5.718;2023-02-11T06:22:39;6.96;83.90
68439;SHT31;55421;51.600;5.718;2023-02-11T06:25:06;6.98;83.95
68439;SHT31;55421;51.600;5.718;2023-02-11T06:27:32;7.00;83.97
68439;SHT31;55421;51.600;5.718;2023-02-11T06:29:59;7.02;83.96
68439;SHT31;55421;51.600;5.718;2023-02-11T06:32:26;7.02;83.96
68439;SHT31;55421;51.600;5.718;2023-02-11T06:34:54;7.01;84.00
68439;SHT31;55421;51.600;5.718;2023-02-11T06:37:20;7.00;84.00
68439;SHT31;55421;51.600;5.718;2023-02-11T06:39:47;7.00;84.08
68439;SHT31;55421;51.600;5.718;2023-02-11T06:42:13;7.00;84.09
68439;SHT31;55421;51.600;5.718;2023-02-11T06:44:40;7.01;84.08
68439;SHT31;55421;51.600;5.718;2023-02-11T06:47:06;7.02;84.10
68439;SHT31;55421;51.600;5.718;2023-02-11T06:49:33;7.04;84.10
68439;SHT31;55421;51.600;5.718;2023-02-11T06:51:59;7.02;84.10
68439;SHT31;55421;51.600;5.718;2023-02-11T06:54:26;7.00;84.15
68439;SHT31;55421;51.600;5.718;2023-02-11T06:56:52;6.99;84.20
68439;SHT31;55421;51.600;5.718;2023-02-11T06:59:19;6.97;84.22
68439;SHT31;55421;51.600;5.718;2023-02-11T07:01:46;6.98;84.30
68439;SHT31;55421;51.600;5.718;2023-02-11T07:04:13;6.99;84.30
68439;SHT31;55421;51.600;5.718;2023-02-11T07:06:40;7.02;84.31
68439;SHT31;55421;51.600;5.718;2023-02-11T07:09:07;7.03;84.39
68439;SHT31;55421;51.600;5.718;2023-02-11T07:11:34;7.04;84.40
68439;SHT31;55421;51.600;5.718;2023-02-11T07:14:04;7.03;84.40
68439;SHT31;55421;51.600;5.718;2023-02-11T07:16:34;7.02;84.44
68439;SHT31;55421;51.600;5.718;2023-02-11T07:19:02;7.02;84.50
68439;SHT31;55421;51.600;5.718;2023-02-11T07:21:28;7.03;84.50
68439;SHT31;55421;51.600;5.718;2023-02-11T07:23:55;7.05;84.55
68439;SHT31;55421;51.600;5.718;2023-02-11T07:26:22;7.07;84.58
68439;SHT31;55421;51.600;5.718;2023-02-11T07:28:51;7.09;84.58
68439;SHT31;55421;51.600;5.718;2023-02-11T07:31:20;7.11;84.59
68439;SHT31;55421;51.600;5.718;2023-02-11T07:33:51;7.11;84.60
68439;SHT31;55421;51.600;5.718;2023-02-11T07:36:20;7.13;84.61
68439;SHT31;55421;51.600;5.718;2023-02-11T07:38:48;7.16;84.61
68439;SHT31;55421;51.600;5.718;2023-02-11T07:41:16;7.20;84.60
68439;SHT31;55421;51.600;5.718;2023-02-11T07:43:46;7.24;84.57
68439;SHT31;55421;51.600;5.718;2023-02-11T07:48:51;7.32;84.51
68439;SHT31;55421;51.600;5.718;2023-02-11T07:51:19;7.34;84.50
68439;SHT31;55421;51.600;5.718;2023-02-11T07:53:52;7.34;84.50
68439;SHT31;55421;51.600;5.718;2023-02-11T07:56:20;7.34;84.51
68439;SHT31;55421;51.600;5.718;2023-02-11T07:58:48;7.34;84.52
68439;SHT31;55421;51.600;5.718;2023-02-11T08:01:16;7.38;84.57
68439;SHT31;55421;51.600;5.718;2023-02-11T08:03:52;7.40;84.51
68439;SHT31;55421;51.600;5.718;2023-02-11T08:06:25;7.44;84.50
68439;SHT31;55421;51.600;5.718;2023-02-11T08:08:55;7.46;84.55
68439;SHT31;55421;51.600;5.718;2023-02-11T08:11:26;7.46;84.53
68439;SHT31;55421;51.600;5.718;2023-02-11T08:13:54;7.46;84.51
68439;SHT31;55421;51.600;5.718;2023-02-11T08:16:26;7.46;84.52
68439;SHT31;55421;51.600;5.718;2023-02-11T08:18:56;7.49;84.56
68439;SHT31;55421;51.600;5.718;2023-02-11T08:21:25;7.53;84.56
68439;SHT31;55421;51.600;5.718;2023-02-11T08:23:53;7.57;84.50
68439;SHT31;55421;51.600;5.718;2023-02-11T08:26:21;7.59;84.51
68439;SHT31;55421;51.600;5.718;2023-02-11T08:28:52;7.58;84.50
68439;SHT31;55421;51.600;5.718;2023-02-11T08:31:26;7.58;84.50
68439;SHT31;55421;51.600;5.718;2023-02-11T08:34:05;7.59;84.51
68439;SHT31;55421;51.600;5.718;2023-02-11T08:36:32;7.58;84.55
68439;SHT31;55421;51.600;5.718;2023-02-11T08:39:07;7.62;84.55
68439;SHT31;55421;51.600;5.718;2023-02-11T08:41:39;7.64;84.59
68439;SHT31;55421;51.600;5.718;2023-02-11T08:44:07;7.67;84.55
68439;SHT31;55421;51.600;5.718;2023-02-11T08:46:34;7.71;84.58
68439;SHT31;55421;51.600;5.718;2023-02-11T08:49:01;7.72;84.57
68439;SHT31;55421;51.600;5.718;2023-02-11T08:51:28;7.73;84.60
68439;SHT31;55421;51.600;5.718;2023-02-11T08:53:58;7.74;84.58
68439;SHT31;55421;51.600;5.718;2023-02-11T08:56:26;7.76;84.60
68439;SHT31;55421;51.600;5.718;2023-02-11T08:58:53;7.78;84.59
68439;SHT31;55421;51.600;5.718;2023-02-11T09:01:24;7.83;84.59
68439;SHT31;55421;51.600;5.718;2023-02-11T09:03:53;7.87;84.57
68439;SHT31;55421;51.600;5.718;2023-02-11T09:06:21;7.90;84.53
68439;SHT31;55421;51.600;5.718;2023-02-11T09:08:50;7.92;84.51
68439;SHT31;55421;51.600;5.718;2023-02-11T09:11:20;7.91;84.50
68439;SHT31;55421;51.600;5.718;2023-02-11T09:13:52;7.91;84.50
68439;SHT31;55421;51.600;5.718;2023-02-11T09:16:19;7.93;84.51
68439;SHT31;55421;51.600;5.718;2023-02-11T09:18:52;7.96;84.50
68439;SHT31;55421;51.600;5.718;2023-02-11T09:21:21;8.00;84.50
68439;SHT31;55421;51.600;5.718;2023-02-11T09:23:48;8.04;84.49
68439;SHT31;55421;51.600;5.718;2023-02-11T09:26:36;8.05;84.44
68439;SHT31;55421;51.600;5.718;2023-02-11T09:29:02;8.07;84.49
68439;SHT31;55421;51.600;5.718;2023-02-11T09:31:31;8.07;84.50
68439;SHT31;55421;51.600;5.718;2023-02-11T09:34:00;8.08;84.50
68439;SHT31;55421;51.600;5.718;2023-02-11T09:36:32;8.11;84.50
68439;SHT31;55421;51.600;5.718;2023-02-11T09:39:03;8.13;84.50
68439;SHT31;55421;51.600;5.718;2023-02-11T09:44:36;8.19;84.43
68439;SHT31;55421;51.600;5.718;2023-02-11T09:47:05;8.22;84.40
68439;SHT31;55421;51.600;5.718;2023-02-11T09:49:56;8.25;84.42
68439;SHT31;55421;51.600;5.718;2023-02-11T09:52:31;8.26;84.40
68439;SHT31;55421;51.600;5.718;2023-02-11T09:58:12;8.30;84.50
68439;SHT31;55421;51.600;5.718;2023-02-11T10:00:43;8.35;84.53
68439;SHT31;55421;51.600;5.718;2023-02-11T10:06:48;8.49;84.39
68439;SHT31;55421;51.600;5.718;2023-02-11T10:12:19;8.54;84.27
68439;SHT31;55421;51.600;5.718;2023-02-11T10:15:23;8.52;84.20
68439;SHT31;55421;51.600;5.718;2023-02-11T10:24:31;8.63;84.21
68439;SHT31;55421;51.600;5.718;2023-02-11T10:27:01;8.65;84.20
68439;SHT31;55421;51.600;5.718;2023-02-11T10:29:44;8.65;84.15
68439;SHT31;55421;51.600;5.718;2023-02-11T10:35:15;8.66;84.11
68439;SHT31;55421;51.600;5.718;2023-02-11T10:37:46;8.67;84.15
68439;SHT31;55421;51.600;5.718;2023-02-11T10:40:14;8.71;84.10
68439;SHT31;55421;51.600;5.718;2023-02-11T10:42:49;8.73;84.10
68439;SHT31;55421;51.600;5.718;2023-02-11T10:45:31;8.74;84.10
68439;SHT31;55421;51.600;5.718;2023-02-11T10:48:05;8.74;84.08
68439;SHT31;55421;51.600;5.718;2023-02-11T10:51:34;8.74;84.04
68439;SHT31;55421;51.600;5.718;2023-02-11T10:56:33;8.81;84.10
68439;SHT31;55421;51.600;5.718;2023-02-11T10:59:04;8.83;84.08
68439;SHT31;55421;51.600;5.718;2023-02-11T11:01:58;8.84;84.01
68439;SHT31;55421;51.600;5.718;2023-02-11T11:04:36;8.85;84.02
68439;SHT31;55421;51.600;5.718;2023-02-11T11:07:17;8.85;84.00
68439;SHT31;55421;51.600;5.718;2023-02-11T11:09:52;8.88;83.96
68439;SHT31;55421;51.600;5.718;2023-02-11T11:12:38;8.91;83.91
68439;SHT31;55421;51.600;5.718;2023-02-11T11:15:18;8.96;83.91
68439;SHT31;55421;51.600;5.718;2023-02-11T11:17:50;9.01;83.88
68439;SHT31;55421;51.600;5.718;2023-02-11T11:20:42;9.04;83.88
68439;SHT31;55421;51.600;5.718;2023-02-11T11:23:25;9.06;83.80
68439;SHT31;55421;51.600;5.718;2023-02-11T11:26:08;9.08;83.80
68439;SHT31;55421;51.600;5.718;2023-02-11T11:29:22;9.13;83.80
68439;SHT31;55421;51.600;5.718;2023-02-11T11:31:44;9.20;83.77
68439;SHT31;55421;51.600;5.718;2023-02-11T11:34:37;9.26;83.63
68439;SHT31;55421;51.600;5.718;2023-02-11T11:37:25;9.32;83.54
68439;SHT31;55421;51.600;5.718;2023-02-11T11:42:35;9.39;83.51
68439;SHT31;55421;51.600;5.718;2023-02-11T11:47:49;9.45;83.35
68439;SHT31;55421;51.600;5.718;2023-02-11T11:50:26;9.47;83.27
68439;SHT31;55421;51.600;5.718;2023-02-11T11:58:41;9.52;83.13
68439;SHT31;55421;51.600;5.718;2023-02-11T12:01:13;9.55;83.19
68439;SHT31;55421;51.600;5.718;2023-02-11T12:04:00;9.65;83.21
68439;SHT31;55421;51.600;5.718;2023-02-11T12:06:52;9.74;83.08
68439;SHT31;55421;51.600;5.718;2023-02-11T12:09:34;9.83;83.03
68439;SHT31;55421;51.600;5.718;2023-02-11T12:23:54;10.09;82.35
68439;SHT31;55421;51.600;5.718;2023-02-11T12:35:51;10.28;82.20
68439;SHT31;55421;51.600;5.718;2023-02-11T12:38:26;10.35;81.94
68439;SHT31;55421;51.600;5.718;2023-02-11T12:44:31;10.43;81.62
68439;SHT31;55421;51.600;5.718;2023-02-11T12:50:53;10.52;81.60
68439;SHT31;55421;51.600;5.718;2023-02-11T12:54:02;10.59;81.40
68439;SHT31;55421;51.600;5.718;2023-02-11T12:56:36;10.69;81.33
68439;SHT31;55421;51.600;5.718;2023-02-11T12:59:16;10.72;80.98
68439;SHT31;55421;51.600;5.718;2023-02-11T13:02:33;10.73;80.93
68439;SHT31;55421;51.600;5.718;2023-02-11T13:08:10;10.68;80.72
68439;SHT31;55421;51.600;5.718;2023-02-11T13:10:48;10.65;80.60
68439;SHT31;55421;51.600;5.718;2023-02-11T13:13:28;10.66;80.59
68439;SHT31;55421;51.600;5.718;2023-02-11T13:16:04;10.63;80.44
68439;SHT31;55421;51.600;5.718;2023-02-11T13:21:55;10.58;80.79
68439;SHT31;55421;51.600;5.718;2023-02-11T13:24:40;10.59;80.79
68439;SHT31;55421;51.600;5.718;2023-02-11T13:27:44;10.63;80.73
68439;SHT31;55421;51.600;5.718;2023-02-11T13:30:34;10.70;80.70
68439;SHT31;55421;51.600;5.718;2023-02-11T13:35:43;10.80;80.49
68439;SHT31;55421;51.600;5.718;2023-02-11T13:38:34;10.80;80.35
68439;SHT31;55421;51.600;5.718;2023-02-11T13:41:25;10.80;80.49
68439;SHT31;55421;51.600;5.718;2023-02-11T13:46:51;10.81;80.33
68439;SHT31;55421;51.600;5.718;2023-02-11T13:49:35;10.81;80.18
68439;SHT31;55421;51.600;5.718;2023-02-11T13:55:01;10.79;80.29
68439;SHT31;55421;51.600;5.718;2023-02-11T13:58:14;10.79;80.29
68439;SHT31;55421;51.600;5.718;2023-02-11T14:00:48;10.82;80.30
68439;SHT31;55421;51.600;5.718;2023-02-11T14:06:15;10.86;80.30
68439;SHT31;55421;51.600;5.718;2023-02-11T14:09:34;10.87;80.34
68439;SHT31;55421;51.600;5.718;2023-02-11T14:12:37;10.84;80.21
68439;SHT31;55421;51.600;5.718;2023-02-11T14:15:00;10.81;80.22
68439;SHT31;55421;51.600;5.718;2023-02-11T14:17:31;10.83;80.29
68439;SHT31;55421;51.600;5.718;2023-02-11T14:20:00;10.83;80.23
68439;SHT31;55421;51.600;5.718;2023-02-11T14:22:49;10.83;80.19
68439;SHT31;55421;51.600;5.718;2023-02-11T14:25:19;10.82;80.25
68439;SHT31;55421;51.600;5.718;2023-02-11T14:27:59;10.80;80.33
68439;SHT31;55421;51.600;5.718;2023-02-11T14:30:53;10.79;80.39
68439;SHT31;55421;51.600;5.718;2023-02-11T14:36:31;10.78;80.43
68439;SHT31;55421;51.600;5.718;2023-02-11T14:39:20;10.80;80.42
68439;SHT31;55421;51.600;5.718;2023-02-11T14:42:01;10.82;80.47
68439;SHT31;55421;51.600;5.718;2023-02-11T14:44:30;10.83;80.40
68439;SHT31;55421;51.600;5.718;2023-02-11T14:46:59;10.83;80.42
68439;SHT31;55421;51.600;5.718;2023-02-11T14:49:32;10.84;80.50
68439;SHT31;55421;51.600;5.718;2023-02-11T14:57:43;10.84;80.35
68439;SHT31;55421;51.600;5.718;2023-02-11T15:00:18;10.85;80.34
68439;SHT31;55421;51.600;5.718;2023-02-11T15:02:47;10.87;80.38
68439;SHT31;55421;51.600;5.718;2023-02-11T15:05:22;10.87;80.32
68439;SHT31;55421;51.600;5.718;2023-02-11T15:07:53;10.85;80.28
68439;SHT31;55421;51.600;5.718;2023-02-11T15:10:30;10.82;80.29
68439;SHT31;55421;51.600;5.718;2023-02-11T15:13:01;10.80;80.39
68439;SHT31;55421;51.600;5.718;2023-02-11T15:15:30;10.78;80.30
68439;SHT31;55421;51.600;5.718;2023-02-11T15:17:58;10.76;80.30
68439;SHT31;55421;51.600;5.718;2023-02-11T15:20:30;10.77;80.32
68439;SHT31;55421;51.600;5.718;2023-02-11T15:23:03;10.77;80.40
68439;SHT31;55421;51.600;5.718;2023-02-11T15:25:43;10.75;80.40
68439;SHT31;55421;51.600;5.718;2023-02-11T15:28:23;10.74;80.39
68439;SHT31;55421;51.600;5.718;2023-02-11T15:31:01;10.71;80.41
68439;SHT31;55421;51.600;5.718;2023-02-11T15:33:40;10.69;80.42
68439;SHT31;55421;51.600;5.718;2023-02-11T15:36:08;10.67;80.37
68439;SHT31;55421;51.600;5.718;2023-02-11T15:38:38;10.67;80.40
68439;SHT31;55421;51.600;5.718;2023-02-11T15:41:06;10.68;80.32
68439;SHT31;55421;51.600;5.718;2023-02-11T15:43:41;10.68;80.34
68439;SHT31;55421;51.600;5.718;2023-02-11T15:46:20;10.65;80.39
68439;SHT31;55421;51.600;5.718;2023-02-11T15:48:52;10.63;80.38
68439;SHT31;55421;51.600;5.718;2023-02-11T15:51:21;10.60;80.40
68439;SHT31;55421;51.600;5.718;2023-02-11T15:53:55;10.56;80.36
68439;SHT31;55421;51.600;5.718;2023-02-11T15:56:34;10.54;80.39
68439;SHT31;55421;51.600;5.718;2023-02-11T16:02:08;10.53;80.44
68439;SHT31;55421;51.600;5.718;2023-02-11T16:04:54;10.50;80.50
68439;SHT31;55421;51.600;5.718;2023-02-11T16:07:43;10.49;80.49
68439;SHT31;55421;51.600;5.718;2023-02-11T16:10:15;10.45;80.50
68439;SHT31;55421;51.600;5.718;2023-02-11T16:12:59;10.40;80.57
68439;SHT31;55421;51.600;5.718;2023-02-11T16:18:02;10.34;80.59
68439;SHT31;55421;51.600;5.718;2023-02-11T16:20:50;10.34;80.60
68439;SHT31;55421;51.600;5.718;2023-02-11T16:23:21;10.32;80.62
68439;SHT31;55421;51.600;5.718;2023-02-11T16:25:59;10.30;80.70
68439;SHT31;55421;51.600;5.718;2023-02-11T16:28:34;10.26;80.74
68439;SHT31;55421;51.600;5.718;2023-02-11T16:31:02;10.21;80.81
68439;SHT31;55421;51.600;5.718;2023-02-11T16:33:30;10.19;80.88
68439;SHT31;55421;51.600;5.718;2023-02-11T16:35:56;10.18;80.90
68439;SHT31;55421;51.600;5.718;2023-02-11T16:38:27;10.18;80.91
68439;SHT31;55421;51.600;5.718;2023-02-11T16:40:55;10.17;81.00
68439;SHT31;55421;51.600;5.718;2023-02-11T16:43:21;10.14;81.00
68439;SHT31;55421;51.600;5.718;2023-02-11T16:45:48;10.09;81.02
68439;SHT31;55421;51.600;5.718;2023-02-11T16:48:15;10.04;81.11
68439;SHT31;55421;51.600;5.718;2023-02-11T16:50:46;9.99;81.17
68439;SHT31;55421;51.600;5.718;2023-02-11T16:53:16;9.94;81.29
68439;SHT31;55421;51.600;5.718;2023-02-11T16:55:49;9.92;81.35
68439;SHT31;55421;51.600;5.718;2023-02-11T16:58:17;9.90;81.48
68439;SHT31;55421;51.600;5.718;2023-02-11T17:00:45;9.90;81.57
68439;SHT31;55421;51.600;5.718;2023-02-11T17:03:15;9.90;81.60
68439;SHT31;55421;51.600;5.718;2023-02-11T17:05:48;9.89;81.71
68439;SHT31;55421;51.600;5.718;2023-02-11T17:08:15;9.86;81.80
68439;SHT31;55421;51.600;5.718;2023-02-11T17:10:42;9.82;81.80
68439;SHT31;55421;51.600;5.718;2023-02-11T17:13:08;9.79;81.89
68439;SHT31;55421;51.600;5.718;2023-02-11T17:15:35;9.74;81.97
68439;SHT31;55421;51.600;5.718;2023-02-11T17:18:02;9.74;82.08
68439;SHT31;55421;51.600;5.718;2023-02-11T17:20:29;9.74;82.13
68439;SHT31;55421;51.600;5.718;2023-02-11T17:22:55;9.74;82.21
68439;SHT31;55421;51.600;5.718;2023-02-11T17:25:22;9.74;82.26
68439;SHT31;55421;51.600;5.718;2023-02-11T17:27:49;9.73;82.31
68439;SHT31;55421;51.600;5.718;2023-02-11T17:30:16;9.71;82.36
68439;SHT31;55421;51.600;5.718;2023-02-11T17:32:43;9.69;82.40
68439;SHT31;55421;51.600;5.718;2023-02-11T17:35:09;9.65;82.49
68439;SHT31;55421;51.600;5.718;2023-02-11T17:37:36;9.61;82.55
68439;SHT31;55421;51.600;5.718;2023-02-11T17:40:02;9.62;82.60
68439;SHT31;55421;51.600;5.718;2023-02-11T17:42:29;9.62;82.66
68439;SHT31;55421;51.600;5.718;2023-02-11T17:44:56;9.64;82.69
68439;SHT31;55421;51.600;5.718;2023-02-11T17:47:23;9.65;82.70
68439;SHT31;55421;51.600;5.718;2023-02-11T17:49:50;9.66;82.68
68439;SHT31;55421;51.600;5.718;2023-02-11T17:52:16;9.67;82.71
68439;SHT31;55421;51.600;5.718;2023-02-11T17:54:44;9.65;82.70
68439;SHT31;55421;51.600;5.718;2023-02-11T17:57:11;9.64;82.70
68439;SHT31;55421;51.600;5.718;2023-02-11T17:59:38;9.60;82.78
68439;SHT31;55421;51.600;5.718;2023-02-11T18:02:05;9.59;82.80
68439;SHT31;55421;51.600;5.718;2023-02-11T18:04:33;9.60;82.90
68439;SHT31;55421;51.600;5.718;2023-02-11T18:06:59;9.60;82.88
68439;SHT31;55421;51.600;5.718;2023-02-11T18:09:26;9.58;82.83
68439;SHT31;55421;51.600;5.718;2023-02-11T18:11:52;9.57;82.85
68439;SHT31;55421;51.600;5.718;2023-02-11T18:14:21;9.57;82.89
68439;SHT31;55421;51.600;5.718;2023-02-11T18:16:48;9.55;82.91
68439;SHT31;55421;51.600;5.718;2023-02-11T18:19:17;9.53;82.93
68439;SHT31;55421;51.600;5.718;2023-02-11T18:21:44;9.51;82.97